Latest Weather Observations for Westmere

IDV60801

Issued at 7:05 pm EDT Thursday 29 January 2015 (issued every 30 minutes, with the page automatically refreshed every 10 minutes)

About weather observations | Map of weather stations | Latest weather observations for VIC | Other Formats
Station Details ID: 089112 Name: WESTMERE Lat: -37.71 Lon: 142.94 Height: 226.0 m
Data from the previous 72 hours. | See also: Recent months at Westmere
Date/Time
EDT
Temp
°C
App
Temp
°C
Dew
Point
Rel
Hum
%
Delta-T
°C
Wind Press
QNH
hPa
Press
MSL
hPa
Rain
since 9 am
mm
Dir
 
Spd
km/h
Gust
km/h
Spd
kts
Gust
kts
29/07:00pm 19.4 12.8 4.4 37 7.3 SE 28 37 15 20 1018.1 1017.4 0.0
29/06:30pm 19.9 13.2 3.6 34 7.8 SE 28 41 15 22 1017.9 1017.2 0.0
29/06:00pm 20.6 14.2 3.3 32 8.3 SE 26 41 14 22 1017.9 1017.2 0.0
29/05:30pm 20.9 14.2 3.6 32 8.3 SE 28 37 15 20 1018.0 1017.3 0.0
29/05:00pm 21.3 15.2 4.8 34 8.2 SE 26 43 14 23 1018.1 1017.4 0.0
29/04:30pm 21.4 14.9 4.5 33 8.3 SE 28 43 15 23 1018.5 1017.8 0.0
29/04:00pm 22.0 15.9 5.0 33 8.5 SSE 26 43 14 23 1018.8 1018.1 0.0
29/03:30pm 21.2 14.7 4.7 34 8.1 SSE 28 43 15 23 1019.1 1018.4 0.0
29/03:00pm 22.1 16.1 5.5 34 8.4 SE 26 43 14 23 1019.3 1018.6 0.0
29/02:43pm 21.8 15.5 5.7 35 8.1 SE 28 48 15 26 1019.3 1018.6 0.0
29/02:30pm 21.5 14.4 5.4 35 8.1 SE 32 43 17 23 1019.5 1018.8 0.0
29/02:02pm 21.6 15.4 6.3 37 7.8 SE 28 50 15 27 1019.7 1019.0 0.0
29/02:00pm 20.9 14.9 5.3 36 7.8 SE 26 50 14 27 1019.7 1019.0 0.0
29/01:30pm 21.9 15.7 6.2 36 8.0 SE 28 44 15 24 1020.0 1019.3 0.0
29/01:00pm 21.2 14.8 7.1 40 7.3 SE 30 43 16 23 1020.2 1019.5 0.0
29/12:30pm 19.8 13.8 6.9 43 6.6 ESE 28 43 15 23 1020.5 1019.8 0.0
29/12:00pm 18.3 12.4 7.4 49 5.6 SSE 28 39 15 21 1020.8 1020.1 0.0
29/11:30am 18.0 12.9 7.7 51 5.3 ESE 24 35 13 19 1021.0 1020.3 0.0
29/11:00am 17.8 13.2 8.1 53 5.0 SE 22 32 12 17 1021.1 1020.4 0.0
29/10:30am 17.2 11.6 8.6 57 4.5 SE 28 37 15 20 1021.2 1020.5 0.0
29/10:00am 17.4 12.2 8.8 57 4.5 SE 26 37 14 20 1021.2 1020.5 0.0
29/09:30am 16.8 11.4 9.5 62 3.8 SE 28 37 15 20 1021.2 1020.5 0.0
29/09:00am 15.6 11.5 10.2 70 2.9 SE 22 28 12 15 1021.3 1020.6 0.0
29/08:30am 14.5 11.5 10.5 77 2.1 SE 17 22 9 12 1021.1 1020.4 0.0
29/08:00am 13.0 10.5 10.9 87 1.1 SE 15 19 8 10 1020.8 1020.1 0.0
29/07:30am 9.3 9.1 9.2 99 0.0 CALM 0 0 0 0 1020.6 1019.9 0.0
29/07:00am 7.5 5.7 7.2 98 0.1 SSE 6 6 3 3 1020.3 1019.6 0.0
29/06:30am 8.0 6.7 7.6 97 0.2 S 4 4 2 2 1020.1 1019.4 0.0
29/06:00am 8.2 6.4 7.8 97 0.2 S 7 9 4 5 1020.0 1019.3 0.0
29/05:30am 8.4 6.8 7.8 96 0.3 SSE 6 6 3 3 1019.8 1019.1 0.0
29/05:00am 8.8 7.0 8.0 95 0.4 S 7 9 4 5 1019.6 1018.9 0.0
29/04:30am 9.1 7.0 8.2 94 0.4 SSE 9 11 5 6 1019.5 1018.8 0.0
29/04:00am 9.4 6.9 8.2 92 0.6 SSE 11 15 6 8 1019.6 1018.9 0.0
29/03:30am 9.7 6.9 8.5 92 0.6 SSE 13 17 7 9 1019.5 1018.8 0.0
29/03:00am 9.9 7.0 8.3 90 0.8 SSE 13 17 7 9 1019.5 1018.8 0.0
29/02:30am 9.9 7.0 8.2 89 0.8 SSE 13 15 7 8 1019.7 1019.0 0.0
29/02:00am 10.0 7.1 8.1 88 0.9 S 13 17 7 9 1020.1 1019.4 0.0
29/01:30am 10.5 7.6 8.3 86 1.1 S 13 13 7 7 1020.5 1019.8 0.0
29/01:00am 11.4 9.0 8.8 84 1.3 SSE 11 15 6 8 1020.6 1019.9 0.0
29/12:30am 11.1 8.7 8.5 84 1.3 SE 11 15 6 8 1020.6 1019.9 0.0
29/12:00am 11.8 9.0 8.5 80 1.6 SSE 13 17 7 9 1020.7 1020.0 0.0
 
Date/Time
EDT
Temp
°C
App
Temp
°C
Dew
Point
Rel
Hum
%
Delta-T
°C
Wind Press
QNH
hPa
Press
MSL
hPa
Rain
since 9 am
mm
Dir
 
Spd
km/h
Gust
km/h
Spd
kts
Gust
kts
28/11:30pm 12.3 9.5 8.4 77 2.0 SE 13 17 7 9 1020.8 1020.1 0.0
28/11:00pm 13.1 9.5 8.4 73 2.4 SE 17 20 9 11 1020.7 1020.0 0.0
28/10:30pm 13.9 9.7 8.1 68 2.9 SE 20 28 11 15 1020.6 1019.9 0.0
28/10:00pm 14.8 9.7 7.8 63 3.5 SE 24 35 13 19 1020.5 1019.8 0.0
28/09:30pm 14.9 10.2 6.2 56 4.2 SE 20 26 11 14 1020.2 1019.5 0.0
28/09:00pm 16.1 10.4 6.8 54 4.6 SE 26 35 14 19 1019.9 1019.2 0.0
28/08:30pm 17.0 11.6 6.2 49 5.3 SE 24 35 13 19 1019.6 1018.9 0.0
28/08:00pm 18.3 11.3 6.2 45 6.0 SE 32 44 17 24 1019.2 1018.5 0.0
28/07:30pm 19.2 11.5 7.0 45 6.2 SE 37 48 20 26 1018.8 1018.1 0.0
28/07:00pm 20.1 12.3 6.5 41 6.9 SE 37 52 20 28 1018.5 1017.8 0.0
28/06:30pm 20.8 13.1 7.1 41 7.1 ESE 37 48 20 26 1018.3 1017.6 0.0
28/06:00pm 21.0 13.5 6.2 38 7.5 SE 35 48 19 26 1018.2 1017.5 0.0
28/05:30pm 21.8 13.0 5.7 35 8.1 SE 41 50 22 27 1018.2 1017.5 0.0
28/05:00pm 22.5 14.6 6.3 35 8.3 SE 37 48 20 26 1018.2 1017.5 0.0
28/04:30pm 22.8 14.9 6.1 34 8.6 ESE 37 52 20 28 1018.0 1017.3 0.0
28/04:15pm 23.1 15.9 6.0 33 8.8 ESE 33 56 18 30 1018.0 1017.3 0.0
28/04:00pm 23.3 15.9 6.6 34 8.7 SE 35 46 19 25 1018.1 1017.4 0.0
28/03:30pm 23.0 15.8 7.5 37 8.2 SE 35 54 19 29 1018.1 1017.4 0.0
28/03:04pm 23.8 17.0 7.8 36 8.5 ESE 33 56 18 30 1018.1 1017.4 0.0
28/03:00pm 23.1 15.8 7.2 36 8.3 SE 35 50 19 27 1018.0 1017.3 0.0
28/02:30pm 23.5 17.0 8.0 37 8.3 SE 32 50 17 27 1018.0 1017.3 0.0
28/02:12pm 22.8 14.5 6.1 34 8.6 SE 39 57 21 31 1018.1 1017.4 0.0
28/02:00pm 22.7 15.4 5.6 33 8.7 ESE 33 50 18 27 1018.1 1017.4 0.0
28/01:43pm 22.4 15.2 5.8 34 8.4 SE 33 54 18 29 1018.4 1017.7 0.0
28/01:30pm 22.6 15.6 6.8 36 8.2 ESE 33 46 18 25 1018.4 1017.7 0.0
28/01:00pm 22.8 15.8 6.1 34 8.6 SE 32 50 17 27 1018.6 1017.9 0.0
28/12:34pm 22.1 16.2 7.5 39 7.7 SE 28 46 15 25 1018.7 1018.0 0.0
28/12:30pm 21.5 16.2 8.4 43 7.0 SE 26 37 14 20 1018.6 1017.9 0.0
28/12:00pm 20.9 15.3 8.9 46 6.4 SSE 28 46 15 25 1018.8 1018.1 0.0
28/11:30am 19.4 14.3 7.8 47 6.0 SE 24 39 13 21 1019.0 1018.3 0.0
28/11:00am 19.1 13.8 8.4 50 5.6 SE 26 37 14 20 1019.2 1018.5 0.0
28/10:30am 18.4 13.8 9.5 56 4.7 SE 24 41 13 22 1019.2 1018.5 0.0
28/10:00am 17.6 13.4 9.8 60 4.1 SE 22 41 12 22 1019.2 1018.5 0.0
28/09:30am 16.1 11.8 9.5 65 3.5 SSE 22 35 12 19 1019.2 1018.5 0.0
28/09:00am 16.2 12.6 10.5 69 3.0 SSE 20 32 11 17 1019.1 1018.4 0.0
28/08:30am 14.1 9.2 10.1 77 2.1 SSE 26 30 14 16 1019.0 1018.3 0.0
28/08:00am 12.7 8.5 9.9 83 1.4 S 22 30 12 16 1018.7 1018.0 0.0
28/07:30am 11.3 7.6 9.4 88 1.0 S 19 22 10 12 1018.3 1017.6 0.0
28/07:00am 10.3 6.8 8.9 91 0.7 S 17 22 9 12 1018.0 1017.3 0.0
28/06:30am 10.7 7.3 9.1 90 0.8 S 17 22 9 12 1018.0 1017.3 0.0
28/06:00am 9.8 7.0 8.6 92 0.6 S 13 17 7 9 1017.8 1017.1 0.0
28/05:30am 9.1 6.5 7.7 91 0.7 S 11 15 6 8 1017.5 1016.7 0.0
28/05:00am 8.6 6.6 7.1 90 0.7 S 7 9 4 5 1017.4 1016.6 0.0
28/04:30am 9.1 6.4 7.2 88 0.9 SSW 11 13 6 7 1017.4 1016.6 0.0
28/04:00am 9.9 6.1 7.7 86 1.1 S 17 20 9 11 1017.6 1016.8 0.0
28/03:30am 10.2 5.5 7.8 85 1.2 S 22 32 12 17 1017.6 1016.8 0.0
28/03:00am 10.0 5.7 7.8 86 1.1 S 20 24 11 13 1017.9 1017.2 0.0
28/02:30am 10.0 5.8 7.4 84 1.3 S 19 24 10 13 1018.1 1017.4 0.0
28/02:00am 11.3 6.9 7.6 78 1.8 SSE 20 28 11 15 1018.3 1017.6 0.0
28/01:30am 12.3 7.3 8.0 75 2.1 SSE 24 37 13 20 1018.5 1017.8 0.0
28/01:00am 12.7 7.6 7.8 72 2.4 SSE 24 33 13 18 1018.6 1017.9 0.0
28/12:30am 12.1 8.8 8.2 77 1.9 S 15 22 8 12 1018.7 1018.0 0.0
28/12:00am 12.1 8.0 7.8 75 2.1 S 19 22 10 12 1018.7 1018.0 0.0
 
Date/Time
EDT
Temp
°C
App
Temp
°C
Dew
Point
Rel
Hum
%
Delta-T
°C
Wind Press
QNH
hPa
Press
MSL
hPa
Rain
since 9 am
mm
Dir
 
Spd
km/h
Gust
km/h
Spd
kts
Gust
kts
27/11:30pm 13.1 8.9 8.2 72 2.5 SSE 20 28 11 15 1018.8 1018.1 0.0
27/11:00pm 13.2 8.5 7.9 70 2.6 SSE 22 30 12 16 1018.9 1018.2 0.0
27/10:30pm 12.6 8.2 7.5 71 2.5 SSE 20 26 11 14 1018.9 1018.2 0.0
27/10:00pm 13.5 8.3 7.1 65 3.1 SSE 24 32 13 17 1018.8 1018.1 0.0
27/09:30pm 14.1 8.2 7.4 64 3.3 SSE 28 37 15 20 1018.5 1017.8 0.0
27/09:00pm 14.8 9.1 6.9 59 3.9 SSE 26 35 14 19 1018.3 1017.6 0.0
27/08:30pm 15.2 9.3 6.0 54 4.5 SSE 26 33 14 18 1018.3 1017.6 0.0
27/08:00pm 15.4 9.1 7.4 59 4.0 SSE 30 39 16 21 1018.0 1017.3 0.0
27/07:30pm 16.6 10.5 6.4 51 5.1 S 28 43 15 23 1017.5 1016.7 0.0
27/07:00pm 16.1 9.7 7.1 55 4.5 SE 30 41 16 22 1017.4 1016.6 0.0
27/06:30pm 16.9 10.2 7.3 53 4.9 SSE 32 39 17 21 1017.2 1016.4 0.0
27/06:00pm 17.1 10.3 7.7 54 4.8 SSE 33 43 18 23 1016.9 1016.2 0.0
27/05:30pm 18.3 12.2 6.8 47 5.8 SSE 28 39 15 21 1016.7 1016.0 0.0
27/05:00pm 18.3 11.4 7.1 48 5.7 SSE 33 46 18 25 1016.6 1015.9 0.0
27/04:32pm 19.0 12.6 6.8 45 6.2 S 30 48 16 26 1016.6 1015.9 0.0
27/04:30pm 19.1 12.8 7.2 46 6.1 S 30 44 16 24 1016.6 1015.9 0.0
27/04:00pm 19.5 12.7 6.9 44 6.4 S 32 43 17 23 1016.8 1016.1 0.0
27/03:30pm 19.3 12.4 7.1 45 6.2 S 33 46 18 25 1016.9 1016.2 0.0
27/03:00pm 20.5 14.5 7.2 42 6.9 SSE 28 41 15 22 1016.8 1016.1 0.0
27/02:44pm 21.2 15.2 7.1 40 7.3 S 28 46 15 25 1016.6 1015.9 0.0
27/02:30pm 21.5 15.6 7.3 40 7.4 SSE 28 41 15 22 1016.7 1016.0 0.0
27/02:00pm 20.4 13.9 6.7 41 7.0 S 30 44 16 24 1016.9 1016.2 0.0
27/01:30pm 20.0 14.7 4.9 37 7.4 SSE 22 35 12 19 1017.0 1016.3 0.0
27/01:00pm 19.6 13.9 4.9 38 7.2 SSE 24 32 13 17 1017.4 1016.6 0.0
27/12:30pm 18.9 13.6 5.0 40 6.8 SE 22 37 12 20 1017.7 1017.0 0.0
27/12:00pm 17.3 11.7 5.3 45 5.8 SSE 24 35 13 19 1018.0 1017.3 0.0
27/11:30am 18.2 11.9 5.8 44 6.1 SSE 28 39 15 21 1018.3 1017.6 0.0
27/11:00am 17.2 11.4 6.4 49 5.4 S 26 37 14 20 1018.3 1017.6 0.0
27/10:30am 16.4 10.8 5.4 48 5.3 SSE 24 33 13 18 1018.5 1017.8 0.0
27/10:00am 14.6 8.7 5.9 56 4.2 SSE 26 37 14 20 1018.5 1017.8 0.0
27/09:30am 15.6 10.5 7.6 59 4.0 SE 24 32 13 17 1018.4 1017.7 0.0
27/09:00am 14.3 9.6 7.6 64 3.3 SE 22 32 12 17 1018.2 1017.5 0.0
27/08:30am 13.9 9.3 8.3 69 2.8 SSE 22 30 12 16 1017.9 1017.2 0.0
27/08:00am 11.8 9.6 9.2 84 1.3 SSE 11 17 6 9 1017.7 1017.0 0.0
27/07:30am 8.5 6.2 7.4 93 0.5 S 9 13 5 7 1017.5 1016.7 0.0
27/07:00am 7.5 5.1 6.8 95 0.3 S 9 11 5 6 1017.4 1016.6 0.0
27/06:30am 6.8 4.2 6.1 95 0.3 S 9 11 5 6 1017.3 1016.5 0.0
27/06:00am 7.1 4.6 6.4 95 0.3 S 9 11 5 6 1016.9 1016.2 0.0
27/05:30am 6.8 4.2 5.9 94 0.4 S 9 11 5 6 1016.9 1016.2 0.0
27/05:00am 6.9 4.3 6.0 94 0.4 S 9 9 5 5 1016.9 1016.2 0.0
27/04:30am 7.3 4.7 6.2 93 0.5 S 9 11 5 6 1016.9 1016.2 0.0
27/04:00am 7.6 5.1 6.4 92 0.6 S 9 11 5 6 1017.2 1016.4 0.0
27/03:30am 7.8 5.3 6.4 91 0.6 S 9 11 5 6 1017.3 1016.5 0.0
27/03:00am 7.9 5.4 6.7 92 0.6 S 9 13 5 7 1017.4 1016.6 0.0
27/02:30am 7.5 5.3 6.0 90 0.7 S 7 9 4 5 1017.6 1016.8 0.0
27/02:00am 8.1 5.6 6.4 89 0.8 SSE 9 9 5 5 1017.6 1016.8 0.0
27/01:30am 8.2 5.6 6.3 88 0.9 SSE 9 11 5 6 1017.9 1017.2 0.0
27/01:00am 8.8 5.9 6.6 86 1.0 SSE 11 13 6 7 1018.1 1017.4 0.0
27/12:30am 9.0 6.1 6.4 84 1.2 S 11 13 6 7 1018.1 1017.4 0.0
27/12:00am 9.6 6.7 6.5 81 1.5 SSE 11 13 6 7 1018.3 1017.6 0.0
 
Date/Time
EDT
Temp
°C
App
Temp
°C
Dew
Point
Rel
Hum
%
Delta-T
°C
Wind Press
QNH
hPa
Press
MSL
hPa
Rain
since 9 am
mm
Dir
 
Spd
km/h
Gust
km/h
Spd
kts
Gust
kts
26/11:30pm 10.4 7.1 6.5 77 1.8 S 13 15 7 8 1018.4 1017.7 0.0
26/11:00pm 11.2 8.0 6.7 74 2.2 S 13 17 7 9 1018.5 1017.8 0.0
26/10:30pm 11.9 7.9 6.6 70 2.5 S 17 22 9 12 1018.6 1017.9 0.0
26/10:00pm 12.5 8.2 6.8 68 2.8 S 19 22 10 12 1018.4 1017.7 0.0
26/09:30pm 13.3 8.8 6.2 62 3.4 S 19 24 10 13 1018.1 1017.4 0.0
26/09:00pm 14.5 9.6 5.3 54 4.4 S 20 28 11 15 1017.8 1017.1 0.0
26/08:30pm 15.8 10.6 5.4 50 5.0 S 22 32 12 17 1017.5 1016.7 0.0
26/08:00pm 16.2 10.6 5.5 49 5.2 S 24 30 13 16 1017.3 1016.5 0.0
26/07:30pm 17.2 11.7 5.8 47 5.6 SSW 24 32 13 17 1016.7 1016.0 0.0

Other Formats:

Comma delimited format used in spreadsheet applications
http://www.bom.gov.au/fwo/IDV60801/IDV60801.95840.axf

JavaScript Object Notation format (JSON) in row-major order
http://www.bom.gov.au/fwo/IDV60801/IDV60801.95840.json